Flight Track Log - Related Links

Times and Time Zones

All times are in EDT time to prevent confusion due to time zone crossing. See the N556VP flight status page for this flight to view local times or setup timezone preferences in your user account.

Time Position Orientation Groundspeed Altitude Reporting Facility
EDT Latitude Longitude Course Direction KTS MPH feet Rate Location/Type
Wed 03:57:25 PM 29.6058 -95.6556 197° South 114 131 600  Level Houston Center
Wed 03:58:57 PM 29.5081 -95.6908 197° South 300 345 5,600 2,889 Climbing Houston Center
Wed 03:59:13 PM 29.5083 -95.6989 272° West 274 315 5,800 2,613 Climbing Houston Center
Wed 03:59:59 PM 29.5364 -95.7742 293° West 301 346 8,300 2,516 Climbing Houston Center
Wed 04:00:15 PM 29.5425 -95.7811 315° West 292 336 8,400 1,592 Climbing Houston Center
Wed 04:00:48 PM 29.5869 -95.8450 309° West 332 382 9,600 1,935 Climbing Houston Center
Wed 04:01:17 PM 29.6164 -95.8797 314° West 339 390 10,400 1,582 Climbing Houston Center
Wed 04:02:19 PM 29.7003 -95.9422 327° Northwest 368 423 12,000 1,536 Climbing Houston Center
Wed 04:03:22 PM 29.7667 -96.0444 307° West 367 422 13,600 1,872 Climbing Houston Center
Wed 04:04:24 PM 29.8331 -96.1306 312° West 362 417 15,900 2,565 Climbing Houston Center
Wed 04:05:26 PM 29.8919 -96.2147 309° West 343 395 18,900 2,613 Climbing Houston Center
Wed 04:06:28 PM 29.9319 -96.3067 297° West 328 377 21,300 1,113 Climbing Houston Center
Wed 04:07:30 PM 29.9503 -96.4272 280° West 381 438 21,200 387 Descending Houston Center
Wed 04:08:32 PM 29.9561 -96.5597 273° West 413 475 22,100 1,161 Climbing Houston Center
Wed 04:09:34 PM 29.9875 -96.7067 284° West 399 459 23,600 1,355 Climbing Houston Center
Wed 04:10:36 PM 30.0122 -96.8289 283° West 394 453 24,900 672 Climbing Houston Center
Wed 04:11:39 PM 30.0372 -96.9497 283° West 391 450 25,000 48 Climbing Houston Center
Wed 04:12:41 PM 30.0642 -97.0783 284° West 410 472 25,000  Level Houston Center
Wed 04:13:43 PM 30.0936 -97.2233 283° West 419 482 25,000  Level Houston Center
Wed 04:14:45 PM 30.1197 -97.3550 283° West 416 479 25,000  Level Houston Center
Wed 04:15:47 PM 30.1467 -97.4878 283° West 418 481 25,000  Level Houston Center
Wed 04:16:49 PM 30.1739 -97.6211 283° West 419 482 25,000 435 Level Houston Center
Wed 04:17:51 PM 30.2308 -97.7647 295° West 413 475 25,900 484 Climbing Houston Center
Wed 04:18:53 PM 30.2783 -97.8825 295° West 410 472 26,000 48 Climbing Houston Center
Wed 04:19:56 PM 30.3297 -98.0075 295° West 415 478 26,000  Level Houston Center
Wed 04:20:58 PM 30.3806 -98.1319 295° West 422 486 26,000  Level Houston Center
Wed 04:22:00 PM 30.4314 -98.2581 295° West 426 490 26,000  Level Houston Center
Wed 04:23:02 PM 30.4836 -98.3839 296° West 428 493 26,000  Level Houston Center
Wed 04:24:04 PM 30.5344 -98.5106 295° West 429 494 26,000  Level Houston Center
Wed 04:25:06 PM 30.5842 -98.6367 295° West 427 491 26,000  Level Houston Center
Wed 04:26:08 PM 30.6433 -98.7867 295° West 432 497 26,000  Level Houston Center
Wed 04:27:10 PM 30.6967 -98.9147 296° West 434 499 26,000  Level Houston Center
Wed 04:28:13 PM 30.7458 -99.0442 294° West 434 499 26,000  Level Houston Center
Wed 04:29:15 PM 30.7994 -99.1744 296° West 435 501 26,000  Level Houston Center
Wed 04:30:17 PM 30.8497 -99.3017 295° West 435 501 26,000  Level Houston Center
Wed 04:31:19 PM 30.8989 -99.4303 294° West 436 502 26,000  Level Houston Center
Wed 04:32:21 PM 30.9475 -99.5564 294° West 430 495 26,000  Level Houston Center
Wed 04:33:23 PM 31.0094 -99.7117 295° West 442 509 26,000  Level Houston Center
Wed 04:34:25 PM 31.0597 -99.8386 295° West 433 498 26,000  Level Houston Center
Wed 04:35:27 PM 31.1092 -99.9694 294° West 437 503 26,000  Level Houston Center
Wed 04:36:30 PM 31.1603 -100.0992 295° West 439 505 26,000  Level Houston Center
Wed 04:37:32 PM 31.2106 -100.2294 294° West 443 510 26,000  Level Houston Center
Wed 04:38:34 PM 31.2694 -100.3853 294° West 439 505 26,000  Level Houston Center
Wed 04:39:36 PM 31.3192 -100.5175 294° West 445 512 26,000  Level Houston Center
Wed 04:40:49 PM 31.3817 -100.6861 294° West 438 504 26,000  Level Fort Worth Center
Wed 04:41:49 PM 31.4267 -100.7972 295° West 432 497 26,000 -250 Level Fort Worth Center
Wed 04:42:49 PM 31.4789 -100.9453 293° West 437 503 25,500 -1,000 Descending Fort Worth Center
Wed 04:43:49 PM 31.5314 -101.0764 295° West 442 509 24,000 -1,850 Descending Fort Worth Center
Wed 04:44:49 PM 31.5778 -101.2075 293° West 442 509 21,800 -2,150 Descending Fort Worth Center
Wed 04:45:49 PM 31.6239 -101.3339 293° West 437 503 19,700 -2,050 Descending Fort Worth Center
Wed 04:46:49 PM 31.6703 -101.4528 295° West 425 489 17,700 -2,100 Descending Fort Worth Center
Wed 04:47:49 PM 31.7144 -101.5719 294° West 411 473 15,500 -1,800 Descending Fort Worth Center
Wed 04:48:49 PM 31.7586 -101.6839 295° West 398 458 14,100 -800 Descending Fort Worth Center
Wed 04:49:49 PM 31.8094 -101.7817 301° West 372 428 13,900 -1,200 Descending Fort Worth Center
Wed 04:50:49 PM 31.8692 -101.8678 309° West 357 411 11,700 -2,250 Descending Fort Worth Center
Wed 04:51:49 PM 31.9331 -101.9517 312° West 344 396 9,400 -2,300 Descending Fort Worth Center
Wed 04:52:49 PM 31.9867 -102.0228 312° West 320 368 7,100 -1,700 Descending Fort Worth Center
Wed 04:53:49 PM 32.0344 -102.0864 312° West 289 333 6,000 -550 Descending Fort Worth Center
Wed 04:54:49 PM 32.0736 -102.1569 303° West 269 310 6,000 -450 Level Fort Worth Center
Wed 04:55:49 PM 32.0403 -102.2092 233° Southwest 180 207 5,100 -1,150 Descending Fort Worth Center
Wed 04:56:49 PM 31.9922 -102.2117 183° South 135 155 3,700 -1,000 Descending Fort Worth Center
Wed 04:57:49 PM 31.9606 -102.2222 196° South 135 155 3,100 -600 Descending Fort Worth Center

Login

Don't have an account? Register now (free) for customized features, flight alerts, and more!